Aérodrome :
LOGIN :

S'inscrire | Disclaimer

   EN    FR    IT 

 










Légende :    VFR   VFR Marginal   IFR   IFR Intensif   IFR Très Intensif
Visi : 
Plafond : 
>= 8 km
>= 3000ft
5 à 8 km
1000 à 3000 ft
1500m à 5 km
500 à 1000 ft
800 à 1500m
200 à 500 ft
< 800m
< 200 ft
Symboles :   Orages  Brouillard  Fortes neiges  Fortes précipitations  Vent > 20 kt
SIGMETs :   Divers  Orages  Givrage  Turbulence  Onde Orograph.  Cendres Volcan.







- Altitude de l'aérodrome : 299 ft
- Code IATA : EDM
- Voir les cartes d'approche


LFRI - La Roche Sur Yon - Les Ajoncs

DERNIER METAR :
  • 281200Z AUTO 20010KT 9999 FEW016/// BKN160/// ///CB 19/15 Q1000 TEMPO 4000 -SHRA BKN014 BKN030CB

METARs EXPIRÉS :
  • 281130Z AUTO 20011KT 9999 FEW025/// ///TCU 19/14 Q1000 TEMPO 4000 -SHRA BKN014 BKN030CB
  • 281100Z AUTO 18011KT 150V220 9999 BKN023/// OVC030/// ///TCU 21/15 Q1001 TEMPO 4000 -SHRA BKN020
  • 281030Z AUTO 18010KT 160V220 9999 BKN025/// BKN050/// BKN068/// ///CB 20/14 Q1001 TEMPO 4000 -SHRA BKN020
  • 281000Z AUTO 23008KT 190V270 9999 FEW025 SCT050 BKN088 21/15 Q1001 NOSIG
  • 280930Z AUTO 25007KT 200V280 9999 FEW024 SCT043 BKN052 20/14 Q1001 NOSIG

TAF TAF LFRI
Valide du 28 à 12h jusqu'au 29 à 12h UTC


281100Z 2812/2912 21010KT 9999 BKN025
BECMG 2818/2821 30010KT
TEMPO 2812/2821 4000 -SHRA BKN014 BKN030CB
PROB30
TEMPO 2814/2819 VRB15G25KT 2000 TSRAGR BKN012 BKN020CB
TEMPO 2821/2912 4000 SHRA BKN008 BKN020CB
PROB30
TEMPO 2908/2912 2000 TSRA BKN008 BKN020CB
BECMG 2902/2904 VRB03KT
BECMG 2906/2908 24012KT
Pas de NOTAMs connus pour ce terrain.
2 SIGMETs publiés pour la FIR Brest (LFRR) :
 
Orages noyés dans la masse
LFRR SIGMET 6 VALID 281200/281400 LFPW
LFRR BREST FIR/UIR EMBD TS OBS AT 1200Z WI N4715 W00015 - N4630 W00015 - N4630 W00130 - N4345 W00145 - N4600 W00315 - N4730 W00145 TOP FL310 MOV E 20KT NC=
Orages noyés dans la masse
LFRR SIGMET 5 VALID 281000/281200 LFPW
LFRR BREST FIR/UIR EMBD TS FCST WI N4615 W00130 - N4330 W00145 - N4345 W00230 - N4500 W00215 - N4615 W00730 - N4715 W00730 TOP FL310 MOV E 25KT NC=



MET'MAP, la Météo Aéronautique d'un coup d'oeil ! - Copyright ORBIFLY Décembre 2007 - Disclaimer

ORBIFLY MET'MAP TEAM :

Programmation & Développement : Alexandra Zaïnal
Conception & Développement : Baudouin d'Aumeries
Co-Programmation & Développement : Marc-Olivier Méhu
Soutien technique & logistique : Manuel Goepfert

Contact : metmap@orbifly.com




SOURCES & CREDITS :

   NOAA